sensor_id;sensor_type;location;lat;lon;timestamp;P1;durP1;ratioP1;P2;durP2;ratioP2
75456;SDS011;64036;48.266;14.192;2023-02-21T00:00:16;4.20;;;2.40;;
75456;SDS011;64036;48.266;14.192;2023-02-21T00:03:00;3.40;;;1.90;;
75456;SDS011;64036;48.266;14.192;2023-02-21T00:05:45;4.70;;;2.00;;
75456;SDS011;64036;48.266;14.192;2023-02-21T00:08:45;2.90;;;2.00;;
75456;SDS011;64036;48.266;14.192;2023-02-21T00:11:32;4.00;;;2.00;;
75456;SDS011;64036;48.266;14.192;2023-02-21T00:14:19;4.00;;;2.30;;
75456;SDS011;64036;48.266;14.192;2023-02-21T00:17:03;3.40;;;2.00;;
75456;SDS011;64036;48.266;14.192;2023-02-21T00:19:48;2.90;;;1.90;;
75456;SDS011;64036;48.266;14.192;2023-02-21T00:22:35;4.20;;;2.20;;
75456;SDS011;64036;48.266;14.192;2023-02-21T00:25:23;3.40;;;2.00;;
75456;SDS011;64036;48.266;14.192;2023-02-21T00:28:10;4.80;;;2.20;;
75456;SDS011;64036;48.266;14.192;2023-02-21T00:31:16;3.70;;;2.10;;
75456;SDS011;64036;48.266;14.192;2023-02-21T00:34:04;4.90;;;2.10;;
75456;SDS011;64036;48.266;14.192;2023-02-21T00:37:17;4.90;;;2.30;;
75456;SDS011;64036;48.266;14.192;2023-02-21T00:40:03;4.50;;;2.40;;
75456;SDS011;64036;48.266;14.192;2023-02-21T00:42:57;4.00;;;2.20;;
75456;SDS011;64036;48.266;14.192;2023-02-21T00:45:45;3.60;;;2.10;;
75456;SDS011;64036;48.266;14.192;2023-02-21T00:48:33;5.70;;;2.50;;
75456;SDS011;64036;48.266;14.192;2023-02-21T00:51:18;5.90;;;2.00;;
75456;SDS011;64036;48.266;14.192;2023-02-21T00:54:16;3.90;;;2.10;;
75456;SDS011;64036;48.266;14.192;2023-02-21T00:57:21;4.60;;;2.40;;
75456;SDS011;64036;48.266;14.192;2023-02-21T01:00:18;3.40;;;2.10;;
75456;SDS011;64036;48.266;14.192;2023-02-21T01:03:12;3.90;;;2.00;;
75456;SDS011;64036;48.266;14.192;2023-02-21T01:09:01;6.70;;;2.30;;
75456;SDS011;64036;48.266;14.192;2023-02-21T01:11:55;4.60;;;2.50;;
75456;SDS011;64036;48.266;14.192;2023-02-21T01:15:00;4.30;;;2.30;;
75456;SDS011;64036;48.266;14.192;2023-02-21T01:17:45;3.40;;;1.90;;
75456;SDS011;64036;48.266;14.192;2023-02-21T01:20:38;4.40;;;2.20;;
75456;SDS011;64036;48.266;14.192;2023-02-21T01:23:28;3.70;;;2.10;;
75456;SDS011;64036;48.266;14.192;2023-02-21T01:29:48;3.80;;;2.10;;
75456;SDS011;64036;48.266;14.192;2023-02-21T01:32:51;6.00;;;2.50;;
75456;SDS011;64036;48.266;14.192;2023-02-21T01:42:07;4.80;;;2.60;;
75456;SDS011;64036;48.266;14.192;2023-02-21T01:48:25;4.30;;;2.50;;
75456;SDS011;64036;48.266;14.192;2023-02-21T01:51:14;4.00;;;2.30;;
75456;SDS011;64036;48.266;14.192;2023-02-21T01:54:05;4.90;;;2.40;;
75456;SDS011;64036;48.266;14.192;2023-02-21T02:03:19;4.20;;;2.00;;
75456;SDS011;64036;48.266;14.192;2023-02-21T02:06:26;3.00;;;1.90;;
75456;SDS011;64036;48.266;14.192;2023-02-21T02:09:22;4.80;;;2.20;;
75456;SDS011;64036;48.266;14.192;2023-02-21T02:12:46;4.20;;;2.30;;
75456;SDS011;64036;48.266;14.192;2023-02-21T02:15:40;4.40;;;2.10;;
75456;SDS011;64036;48.266;14.192;2023-02-21T02:25:16;4.30;;;2.00;;
75456;SDS011;64036;48.266;14.192;2023-02-21T02:31:49;3.60;;;1.90;;
75456;SDS011;64036;48.266;14.192;2023-02-21T02:35:00;2.50;;;1.80;;
75456;SDS011;64036;48.266;14.192;2023-02-21T02:38:17;3.30;;;2.00;;
75456;SDS011;64036;48.266;14.192;2023-02-21T02:41:23;4.20;;;1.80;;
75456;SDS011;64036;48.266;14.192;2023-02-21T02:44:01;5.80;;;2.20;;
75456;SDS011;64036;48.266;14.192;2023-02-21T02:46:36;3.80;;;1.90;;
75456;SDS011;64036;48.266;14.192;2023-02-21T02:51:39;3.30;;;2.10;;
75456;SDS011;64036;48.266;14.192;2023-02-21T02:54:15;3.50;;;2.40;;
75456;SDS011;64036;48.266;14.192;2023-02-21T02:56:52;3.50;;;2.10;;
75456;SDS011;64036;48.266;14.192;2023-02-21T02:59:20;4.10;;;2.00;;
75456;SDS011;64036;48.266;14.192;2023-02-21T03:11:16;3.30;;;1.90;;
75456;SDS011;64036;48.266;14.192;2023-02-21T03:14:11;4.30;;;1.90;;
75456;SDS011;64036;48.266;14.192;2023-02-21T03:17:15;5.00;;;2.30;;
75456;SDS011;64036;48.266;14.192;2023-02-21T03:19:46;5.00;;;2.40;;
75456;SDS011;64036;48.266;14.192;2023-02-21T03:22:25;4.30;;;2.20;;
75456;SDS011;64036;48.266;14.192;2023-02-21T03:24:55;4.10;;;2.10;;
75456;SDS011;64036;48.266;14.192;2023-02-21T03:27:40;4.10;;;1.90;;
75456;SDS011;64036;48.266;14.192;2023-02-21T03:30:28;4.20;;;2.10;;
75456;SDS011;64036;48.266;14.192;2023-02-21T03:32:58;3.70;;;1.80;;
75456;SDS011;64036;48.266;14.192;2023-02-21T03:35:27;5.70;;;2.20;;
75456;SDS011;64036;48.266;14.192;2023-02-21T03:37:54;3.70;;;1.80;;
75456;SDS011;64036;48.266;14.192;2023-02-21T03:40:32;4.50;;;1.80;;
75456;SDS011;64036;48.266;14.192;2023-02-21T03:43:05;4.00;;;2.00;;
75456;SDS011;64036;48.266;14.192;2023-02-21T03:45:32;3.20;;;2.00;;
75456;SDS011;64036;48.266;14.192;2023-02-21T03:48:09;4.00;;;2.00;;
75456;SDS011;64036;48.266;14.192;2023-02-21T03:50:37;4.20;;;1.90;;
75456;SDS011;64036;48.266;14.192;2023-02-21T03:53:03;3.60;;;2.10;;
75456;SDS011;64036;48.266;14.192;2023-02-21T03:55:32;4.00;;;1.70;;
75456;SDS011;64036;48.266;14.192;2023-02-21T03:58:03;3.10;;;2.00;;
75456;SDS011;64036;48.266;14.192;2023-02-21T04:00:34;5.20;;;2.00;;
75456;SDS011;64036;48.266;14.192;2023-02-21T04:03:02;4.70;;;2.10;;
75456;SDS011;64036;48.266;14.192;2023-02-21T04:05:36;4.10;;;2.10;;
75456;SDS011;64036;48.266;14.192;2023-02-21T04:11:17;3.90;;;2.00;;
75456;SDS011;64036;48.266;14.192;2023-02-21T04:13:46;5.10;;;2.00;;
75456;SDS011;64036;48.266;14.192;2023-02-21T04:16:12;4.60;;;2.30;;
75456;SDS011;64036;48.266;14.192;2023-02-21T04:18:41;5.10;;;2.10;;
75456;SDS011;64036;48.266;14.192;2023-02-21T04:21:07;4.20;;;1.70;;
75456;SDS011;64036;48.266;14.192;2023-02-21T04:23:33;7.30;;;2.30;;
75456;SDS011;64036;48.266;14.192;2023-02-21T04:26:01;3.20;;;1.70;;
75456;SDS011;64036;48.266;14.192;2023-02-21T04:28:27;4.00;;;1.90;;
75456;SDS011;64036;48.266;14.192;2023-02-21T04:30:56;4.50;;;2.00;;
75456;SDS011;64036;48.266;14.192;2023-02-21T04:33:32;5.30;;;2.00;;
75456;SDS011;64036;48.266;14.192;2023-02-21T04:36:04;3.90;;;1.80;;
75456;SDS011;64036;48.266;14.192;2023-02-21T04:38:30;3.20;;;1.70;;
75456;SDS011;64036;48.266;14.192;2023-02-21T04:41:05;2.80;;;1.60;;
75456;SDS011;64036;48.266;14.192;2023-02-21T04:43:51;2.40;;;1.40;;
75456;SDS011;64036;48.266;14.192;2023-02-21T04:46:33;3.30;;;1.70;;
75456;SDS011;64036;48.266;14.192;2023-02-21T04:48:59;3.70;;;1.90;;
75456;SDS011;64036;48.266;14.192;2023-02-21T04:51:35;4.80;;;2.00;;
75456;SDS011;64036;48.266;14.192;2023-02-21T04:54:01;4.50;;;1.70;;
75456;SDS011;64036;48.266;14.192;2023-02-21T04:56:30;5.10;;;1.90;;
75456;SDS011;64036;48.266;14.192;2023-02-21T04:59:02;3.30;;;1.90;;
75456;SDS011;64036;48.266;14.192;2023-02-21T05:01:29;2.90;;;1.60;;
75456;SDS011;64036;48.266;14.192;2023-02-21T05:04:17;3.90;;;1.90;;
75456;SDS011;64036;48.266;14.192;2023-02-21T05:06:42;2.50;;;1.50;;
75456;SDS011;64036;48.266;14.192;2023-02-21T05:09:08;3.90;;;2.10;;
75456;SDS011;64036;48.266;14.192;2023-02-21T05:11:43;5.00;;;2.00;;
75456;SDS011;64036;48.266;14.192;2023-02-21T05:14:19;3.30;;;1.80;;
75456;SDS011;64036;48.266;14.192;2023-02-21T05:16:45;6.20;;;1.90;;
75456;SDS011;64036;48.266;14.192;2023-02-21T05:19:16;2.40;;;1.50;;
75456;SDS011;64036;48.266;14.192;2023-02-21T05:22:02;3.00;;;1.70;;
75456;SDS011;64036;48.266;14.192;2023-02-21T05:24:32;3.60;;;2.00;;
75456;SDS011;64036;48.266;14.192;2023-02-21T05:27:07;4.10;;;1.70;;
75456;SDS011;64036;48.266;14.192;2023-02-21T05:29:39;3.80;;;1.60;;
75456;SDS011;64036;48.266;14.192;2023-02-21T05:32:23;4.00;;;1.80;;
75456;SDS011;64036;48.266;14.192;2023-02-21T05:35:02;5.60;;;1.90;;
75456;SDS011;64036;48.266;14.192;2023-02-21T05:37:27;3.70;;;2.00;;
75456;SDS011;64036;48.266;14.192;2023-02-21T05:39:56;5.30;;;1.80;;
75456;SDS011;64036;48.266;14.192;2023-02-21T05:42:41;4.40;;;2.00;;
75456;SDS011;64036;48.266;14.192;2023-02-21T05:45:10;4.30;;;1.90;;
75456;SDS011;64036;48.266;14.192;2023-02-21T05:47:39;3.90;;;1.90;;
75456;SDS011;64036;48.266;14.192;2023-02-21T05:50:30;3.60;;;1.90;;
75456;SDS011;64036;48.266;14.192;2023-02-21T05:53:00;3.60;;;2.00;;
75456;SDS011;64036;48.266;14.192;2023-02-21T05:55:26;5.40;;;2.00;;
75456;SDS011;64036;48.266;14.192;2023-02-21T05:57:55;4.20;;;1.90;;
75456;SDS011;64036;48.266;14.192;2023-02-21T06:00:27;4.40;;;1.90;;
75456;SDS011;64036;48.266;14.192;2023-02-21T06:02:57;3.60;;;2.10;;
75456;SDS011;64036;48.266;14.192;2023-02-21T06:05:30;5.00;;;1.80;;
75456;SDS011;64036;48.266;14.192;2023-02-21T06:07:59;3.80;;;1.90;;
75456;SDS011;64036;48.266;14.192;2023-02-21T06:10:45;4.30;;;2.10;;
75456;SDS011;64036;48.266;14.192;2023-02-21T06:13:11;8.60;;;2.10;;
75456;SDS011;64036;48.266;14.192;2023-02-21T06:15:37;3.70;;;2.00;;
75456;SDS011;64036;48.266;14.192;2023-02-21T06:18:05;5.40;;;2.00;;
75456;SDS011;64036;48.266;14.192;2023-02-21T06:20:31;3.90;;;2.10;;
75456;SDS011;64036;48.266;14.192;2023-02-21T06:22:56;3.50;;;2.00;;
75456;SDS011;64036;48.266;14.192;2023-02-21T06:25:27;6.20;;;2.40;;
75456;SDS011;64036;48.266;14.192;2023-02-21T06:27:58;4.40;;;2.20;;
75456;SDS011;64036;48.266;14.192;2023-02-21T06:30:24;3.80;;;1.80;;
75456;SDS011;64036;48.266;14.192;2023-02-21T06:32:57;3.60;;;2.10;;
75456;SDS011;64036;48.266;14.192;2023-02-21T06:35:28;3.80;;;2.00;;
75456;SDS011;64036;48.266;14.192;2023-02-21T06:37:59;5.00;;;2.40;;
75456;SDS011;64036;48.266;14.192;2023-02-21T06:40:25;4.60;;;2.20;;
75456;SDS011;64036;48.266;14.192;2023-02-21T06:42:50;5.90;;;2.70;;
75456;SDS011;64036;48.266;14.192;2023-02-21T06:45:16;3.90;;;2.20;;
75456;SDS011;64036;48.266;14.192;2023-02-21T06:47:42;6.80;;;3.20;;
75456;SDS011;64036;48.266;14.192;2023-02-21T06:50:07;5.90;;;2.20;;
75456;SDS011;64036;48.266;14.192;2023-02-21T06:52:33;6.10;;;2.20;;
75456;SDS011;64036;48.266;14.192;2023-02-21T06:54:59;4.90;;;2.50;;
75456;SDS011;64036;48.266;14.192;2023-02-21T06:57:24;5.40;;;2.30;;
75456;SDS011;64036;48.266;14.192;2023-02-21T06:59:50;5.40;;;2.30;;
75456;SDS011;64036;48.266;14.192;2023-02-21T07:02:17;4.10;;;2.30;;
75456;SDS011;64036;48.266;14.192;2023-02-21T07:04:45;3.80;;;2.10;;
75456;SDS011;64036;48.266;14.192;2023-02-21T07:07:11;5.20;;;2.30;;
75456;SDS011;64036;48.266;14.192;2023-02-21T07:09:37;3.50;;;2.10;;
75456;SDS011;64036;48.266;14.192;2023-02-21T07:12:03;5.70;;;2.40;;
75456;SDS011;64036;48.266;14.192;2023-02-21T07:14:29;4.80;;;2.30;;
75456;SDS011;64036;48.266;14.192;2023-02-21T07:16:54;5.30;;;2.40;;
75456;SDS011;64036;48.266;14.192;2023-02-21T07:19:20;4.30;;;2.20;;
75456;SDS011;64036;48.266;14.192;2023-02-21T07:21:46;3.00;;;2.00;;
75456;SDS011;64036;48.266;14.192;2023-02-21T07:24:12;3.70;;;2.10;;
75456;SDS011;64036;48.266;14.192;2023-02-21T07:26:38;4.90;;;2.40;;
75456;SDS011;64036;48.266;14.192;2023-02-21T07:29:04;3.70;;;2.20;;
75456;SDS011;64036;48.266;14.192;2023-02-21T07:31:31;5.80;;;2.50;;
75456;SDS011;64036;48.266;14.192;2023-02-21T07:33:57;4.50;;;2.30;;
75456;SDS011;64036;48.266;14.192;2023-02-21T07:36:22;5.80;;;2.00;;
75456;SDS011;64036;48.266;14.192;2023-02-21T07:38:48;3.70;;;2.20;;
75456;SDS011;64036;48.266;14.192;2023-02-21T07:41:15;4.40;;;2.10;;
75456;SDS011;64036;48.266;14.192;2023-02-21T07:43:41;4.20;;;2.10;;
75456;SDS011;64036;48.266;14.192;2023-02-21T07:46:11;4.50;;;2.30;;
75456;SDS011;64036;48.266;14.192;2023-02-21T07:48:38;4.60;;;2.40;;
75456;SDS011;64036;48.266;14.192;2023-02-21T07:51:06;5.20;;;2.50;;
75456;SDS011;64036;48.266;14.192;2023-02-21T07:53:32;5.70;;;2.60;;
75456;SDS011;64036;48.266;14.192;2023-02-21T07:55:58;4.60;;;2.20;;
75456;SDS011;64036;48.266;14.192;2023-02-21T07:58:23;5.00;;;2.00;;
75456;SDS011;64036;48.266;14.192;2023-02-21T08:00:50;3.90;;;2.30;;
75456;SDS011;64036;48.266;14.192;2023-02-21T08:03:17;4.20;;;2.10;;
75456;SDS011;64036;48.266;14.192;2023-02-21T08:05:42;4.30;;;2.30;;
75456;SDS011;64036;48.266;14.192;2023-02-21T08:08:10;4.60;;;2.30;;
75456;SDS011;64036;48.266;14.192;2023-02-21T08:10:36;4.90;;;1.90;;
75456;SDS011;64036;48.266;14.192;2023-02-21T08:13:03;4.60;;;2.30;;
75456;SDS011;64036;48.266;14.192;2023-02-21T08:15:29;5.00;;;2.00;;
75456;SDS011;64036;48.266;14.192;2023-02-21T08:17:54;4.80;;;2.20;;
75456;SDS011;64036;48.266;14.192;2023-02-21T08:20:20;3.50;;;2.10;;
75456;SDS011;64036;48.266;14.192;2023-02-21T08:22:46;4.10;;;2.20;;
75456;SDS011;64036;48.266;14.192;2023-02-21T08:25:13;5.40;;;2.10;;
75456;SDS011;64036;48.266;14.192;2023-02-21T08:27:41;5.20;;;2.20;;
75456;SDS011;64036;48.266;14.192;2023-02-21T08:30:09;5.10;;;2.10;;
75456;SDS011;64036;48.266;14.192;2023-02-21T08:32:36;5.40;;;2.50;;
75456;SDS011;64036;48.266;14.192;2023-02-21T08:35:03;3.80;;;2.10;;
75456;SDS011;64036;48.266;14.192;2023-02-21T08:37:31;4.60;;;2.20;;
75456;SDS011;64036;48.266;14.192;2023-02-21T08:40:00;5.20;;;2.50;;
75456;SDS011;64036;48.266;14.192;2023-02-21T08:42:28;5.30;;;2.50;;
75456;SDS011;64036;48.266;14.192;2023-02-21T08:44:53;5.40;;;2.30;;
75456;SDS011;64036;48.266;14.192;2023-02-21T08:47:19;6.20;;;2.70;;
75456;SDS011;64036;48.266;14.192;2023-02-21T08:49:46;5.50;;;2.60;;
75456;SDS011;64036;48.266;14.192;2023-02-21T08:52:14;4.60;;;2.80;;
75456;SDS011;64036;48.266;14.192;2023-02-21T08:54:41;5.60;;;2.40;;
75456;SDS011;64036;48.266;14.192;2023-02-21T08:57:08;5.20;;;2.70;;
75456;SDS011;64036;48.266;14.192;2023-02-21T08:59:34;5.40;;;2.80;;
75456;SDS011;64036;48.266;14.192;2023-02-21T09:02:02;5.20;;;2.90;;
75456;SDS011;64036;48.266;14.192;2023-02-21T09:04:27;6.60;;;3.20;;
75456;SDS011;64036;48.266;14.192;2023-02-21T09:06:54;5.00;;;2.80;;
75456;SDS011;64036;48.266;14.192;2023-02-21T09:09:20;5.90;;;3.10;;
75456;SDS011;64036;48.266;14.192;2023-02-21T09:11:46;6.50;;;3.30;;
75456;SDS011;64036;48.266;14.192;2023-02-21T09:14:14;6.30;;;3.30;;
75456;SDS011;64036;48.266;14.192;2023-02-21T09:16:41;5.20;;;2.80;;
75456;SDS011;64036;48.266;14.192;2023-02-21T09:19:08;5.80;;;3.10;;
75456;SDS011;64036;48.266;14.192;2023-02-21T09:21:35;5.40;;;3.10;;
75456;SDS011;64036;48.266;14.192;2023-02-21T09:24:09;5.40;;;3.20;;
75456;SDS011;64036;48.266;14.192;2023-02-21T09:26:35;5.80;;;3.00;;
75456;SDS011;64036;48.266;14.192;2023-02-21T09:29:01;5.40;;;3.20;;
75456;SDS011;64036;48.266;14.192;2023-02-21T09:31:26;6.50;;;3.20;;
75456;SDS011;64036;48.266;14.192;2023-02-21T09:33:52;7.50;;;3.50;;
75456;SDS011;64036;48.266;14.192;2023-02-21T09:36:18;7.10;;;3.20;;
75456;SDS011;64036;48.266;14.192;2023-02-21T09:38:51;5.20;;;2.60;;
75456;SDS011;64036;48.266;14.192;2023-02-21T09:41:18;6.60;;;2.90;;
75456;SDS011;64036;48.266;14.192;2023-02-21T09:43:47;5.10;;;2.80;;
75456;SDS011;64036;48.266;14.192;2023-02-21T09:46:24;5.00;;;2.50;;
75456;SDS011;64036;48.266;14.192;2023-02-21T09:49:00;6.10;;;2.70;;
75456;SDS011;64036;48.266;14.192;2023-02-21T09:51:30;4.40;;;2.60;;
75456;SDS011;64036;48.266;14.192;2023-02-21T09:53:57;5.30;;;2.80;;
75456;SDS011;64036;48.266;14.192;2023-02-21T09:56:29;4.70;;;2.40;;
75456;SDS011;64036;48.266;14.192;2023-02-21T09:58:58;4.70;;;2.60;;
75456;SDS011;64036;48.266;14.192;2023-02-21T10:12:45;4.30;;;2.10;;
75456;SDS011;64036;48.266;14.192;2023-02-21T10:15:35;3.40;;;2.10;;
75456;SDS011;64036;48.266;14.192;2023-02-21T10:18:19;4.30;;;1.70;;
75456;SDS011;64036;48.266;14.192;2023-02-21T10:20:52;3.40;;;1.90;;
75456;SDS011;64036;48.266;14.192;2023-02-21T10:26:08;3.80;;;1.50;;
75456;SDS011;64036;48.266;14.192;2023-02-21T10:28:36;3.00;;;1.60;;
75456;SDS011;64036;48.266;14.192;2023-02-21T10:31:15;2.40;;;1.40;;
75456;SDS011;64036;48.266;14.192;2023-02-21T10:33:50;2.80;;;1.50;;
75456;SDS011;64036;48.266;14.192;2023-02-21T10:36:18;3.30;;;1.50;;
75456;SDS011;64036;48.266;14.192;2023-02-21T10:39:05;3.00;;;1.50;;
75456;SDS011;64036;48.266;14.192;2023-02-21T10:41:39;2.20;;;1.50;;
75456;SDS011;64036;48.266;14.192;2023-02-21T10:44:15;3.70;;;1.50;;
75456;SDS011;64036;48.266;14.192;2023-02-21T10:46:54;2.80;;;1.60;;
75456;SDS011;64036;48.266;14.192;2023-02-21T10:52:35;5.30;;;2.10;;
75456;SDS011;64036;48.266;14.192;2023-02-21T10:55:06;3.70;;;1.80;;
75456;SDS011;64036;48.266;14.192;2023-02-21T10:57:42;4.30;;;2.00;;
75456;SDS011;64036;48.266;14.192;2023-02-21T11:00:09;4.00;;;1.70;;
75456;SDS011;64036;48.266;14.192;2023-02-21T11:02:50;2.80;;;1.70;;
75456;SDS011;64036;48.266;14.192;2023-02-21T11:05:23;3.40;;;1.80;;
75456;SDS011;64036;48.266;14.192;2023-02-21T11:08:01;2.70;;;1.70;;
75456;SDS011;64036;48.266;14.192;2023-02-21T11:10:33;3.30;;;1.90;;
75456;SDS011;64036;48.266;14.192;2023-02-21T11:13:03;3.50;;;1.80;;
75456;SDS011;64036;48.266;14.192;2023-02-21T11:15:31;3.70;;;2.10;;
75456;SDS011;64036;48.266;14.192;2023-02-21T11:18:16;3.40;;;1.90;;
75456;SDS011;64036;48.266;14.192;2023-02-21T11:20:51;3.70;;;2.10;;
75456;SDS011;64036;48.266;14.192;2023-02-21T11:23:22;4.80;;;2.10;;
75456;SDS011;64036;48.266;14.192;2023-02-21T11:25:56;4.50;;;1.90;;
75456;SDS011;64036;48.266;14.192;2023-02-21T11:28:42;3.80;;;1.80;;
75456;SDS011;64036;48.266;14.192;2023-02-21T11:31:28;2.60;;;1.60;;
75456;SDS011;64036;48.266;14.192;2023-02-21T11:33:58;3.70;;;1.80;;
75456;SDS011;64036;48.266;14.192;2023-02-21T11:36:28;2.70;;;1.60;;
75456;SDS011;64036;48.266;14.192;2023-02-21T11:39:21;5.00;;;2.00;;
75456;SDS011;64036;48.266;14.192;2023-02-21T11:41:54;3.30;;;1.80;;
75456;SDS011;64036;48.266;14.192;2023-02-21T11:44:34;4.90;;;2.10;;
75456;SDS011;64036;48.266;14.192;2023-02-21T11:47:25;4.10;;;1.80;;
75456;SDS011;64036;48.266;14.192;2023-02-21T11:50:16;4.30;;;2.00;;
75456;SDS011;64036;48.266;14.192;2023-02-21T11:55:21;5.50;;;2.20;;
75456;SDS011;64036;48.266;14.192;2023-02-21T12:01:17;3.00;;;1.80;;
75456;SDS011;64036;48.266;14.192;2023-02-21T12:06:44;3.50;;;1.90;;
75456;SDS011;64036;48.266;14.192;2023-02-21T12:24:04;2.40;;;1.50;;
75456;SDS011;64036;48.266;14.192;2023-02-21T12:27:00;3.40;;;1.70;;
75456;SDS011;64036;48.266;14.192;2023-02-21T12:49:26;3.00;;;1.50;;
75456;SDS011;64036;48.266;14.192;2023-02-21T12:57:55;3.40;;;1.40;;
75456;SDS011;64036;48.266;14.192;2023-02-21T13:00:35;2.40;;;1.40;;
75456;SDS011;64036;48.266;14.192;2023-02-21T13:06:32;2.10;;;1.30;;
75456;SDS011;64036;48.266;14.192;2023-02-21T13:09:08;3.30;;;1.50;;
75456;SDS011;64036;48.266;14.192;2023-02-21T13:11:57;2.10;;;1.40;;
75456;SDS011;64036;48.266;14.192;2023-02-21T13:14:36;2.40;;;1.50;;
75456;SDS011;64036;48.266;14.192;2023-02-21T13:17:09;2.90;;;1.50;;
75456;SDS011;64036;48.266;14.192;2023-02-21T13:28:54;2.80;;;1.60;;
75456;SDS011;64036;48.266;14.192;2023-02-21T13:31:24;3.50;;;1.70;;
75456;SDS011;64036;48.266;14.192;2023-02-21T13:34:01;2.90;;;1.50;;
75456;SDS011;64036;48.266;14.192;2023-02-21T13:41:35;2.10;;;1.40;;
75456;SDS011;64036;48.266;14.192;2023-02-21T13:44:11;2.90;;;1.60;;
75456;SDS011;64036;48.266;14.192;2023-02-21T13:49:42;3.40;;;1.80;;
75456;SDS011;64036;48.266;14.192;2023-02-21T13:52:26;3.10;;;1.70;;
75456;SDS011;64036;48.266;14.192;2023-02-21T14:08:39;5.40;;;1.70;;
75456;SDS011;64036;48.266;14.192;2023-02-21T14:21:06;2.60;;;1.50;;
75456;SDS011;64036;48.266;14.192;2023-02-21T14:37:39;3.70;;;1.50;;
75456;SDS011;64036;48.266;14.192;2023-02-21T15:00:06;3.40;;;1.70;;
75456;SDS011;64036;48.266;14.192;2023-02-21T15:02:57;4.20;;;1.60;;
75456;SDS011;64036;48.266;14.192;2023-02-21T15:05:37;1.80;;;1.40;;
75456;SDS011;64036;48.266;14.192;2023-02-21T15:08:16;3.20;;;1.70;;
75456;SDS011;64036;48.266;14.192;2023-02-21T15:10:43;3.30;;;1.90;;
75456;SDS011;64036;48.266;14.192;2023-02-21T15:13:21;2.30;;;1.60;;
75456;SDS011;64036;48.266;14.192;2023-02-21T15:18:34;2.00;;;1.50;;
75456;SDS011;64036;48.266;14.192;2023-02-21T15:21:16;4.20;;;1.60;;
75456;SDS011;64036;48.266;14.192;2023-02-21T15:23:44;4.30;;;1.80;;
75456;SDS011;64036;48.266;14.192;2023-02-21T15:26:26;3.80;;;2.00;;
75456;SDS011;64036;48.266;14.192;2023-02-21T15:29:15;3.70;;;1.70;;
75456;SDS011;64036;48.266;14.192;2023-02-21T15:31:52;2.50;;;1.70;;
75456;SDS011;64036;48.266;14.192;2023-02-21T15:34:43;4.60;;;1.90;;
75456;SDS011;64036;48.266;14.192;2023-02-21T15:37:26;3.90;;;1.90;;
75456;SDS011;64036;48.266;14.192;2023-02-21T15:40:03;3.60;;;1.80;;
75456;SDS011;64036;48.266;14.192;2023-02-21T15:42:38;2.30;;;1.50;;
75456;SDS011;64036;48.266;14.192;2023-02-21T15:45:08;3.20;;;1.80;;
75456;SDS011;64036;48.266;14.192;2023-02-21T15:47:43;2.30;;;1.60;;
75456;SDS011;64036;48.266;14.192;2023-02-21T15:50:36;4.40;;;1.90;;
75456;SDS011;64036;48.266;14.192;2023-02-21T15:53:23;3.60;;;1.90;;
75456;SDS011;64036;48.266;14.192;2023-02-21T15:55:51;3.50;;;1.70;;
75456;SDS011;64036;48.266;14.192;2023-02-21T15:58:21;3.90;;;1.60;;
75456;SDS011;64036;48.266;14.192;2023-02-21T16:01:06;3.50;;;1.70;;
75456;SDS011;64036;48.266;14.192;2023-02-21T16:06:25;2.60;;;1.70;;
75456;SDS011;64036;48.266;14.192;2023-02-21T16:08:54;4.10;;;1.90;;
75456;SDS011;64036;48.266;14.192;2023-02-21T16:12:04;4.00;;;1.70;;
75456;SDS011;64036;48.266;14.192;2023-02-21T16:14:43;3.90;;;1.70;;
75456;SDS011;64036;48.266;14.192;2023-02-21T16:19:40;4.20;;;2.10;;
75456;SDS011;64036;48.266;14.192;2023-02-21T16:22:31;4.80;;;2.00;;
75456;SDS011;64036;48.266;14.192;2023-02-21T16:27:38;5.20;;;2.30;;
75456;SDS011;64036;48.266;14.192;2023-02-21T16:30:06;3.40;;;2.00;;
75456;SDS011;64036;48.266;14.192;2023-02-21T16:32:37;5.20;;;1.80;;
75456;SDS011;64036;48.266;14.192;2023-02-21T16:35:12;5.30;;;1.80;;
75456;SDS011;64036;48.266;14.192;2023-02-21T16:37:39;3.50;;;1.70;;
75456;SDS011;64036;48.266;14.192;2023-02-21T16:40:12;3.70;;;2.10;;
75456;SDS011;64036;48.266;14.192;2023-02-21T16:42:46;5.50;;;2.20;;
75456;SDS011;64036;48.266;14.192;2023-02-21T16:45:21;3.50;;;2.00;;
75456;SDS011;64036;48.266;14.192;2023-02-21T16:48:22;4.00;;;1.80;;
75456;SDS011;64036;48.266;14.192;2023-02-21T16:50:53;3.80;;;1.80;;
75456;SDS011;64036;48.266;14.192;2023-02-21T16:53:21;4.70;;;1.60;;
75456;SDS011;64036;48.266;14.192;2023-02-21T16:56:03;3.80;;;1.70;;
75456;SDS011;64036;48.266;14.192;2023-02-21T16:58:36;3.10;;;1.80;;
75456;SDS011;64036;48.266;14.192;2023-02-21T17:01:26;4.80;;;2.30;;
75456;SDS011;64036;48.266;14.192;2023-02-21T17:03:54;16.40;;;9.70;;
75456;SDS011;64036;48.266;14.192;2023-02-21T17:06:22;29.70;;;17.90;;
75456;SDS011;64036;48.266;14.192;2023-02-21T17:08:49;24.60;;;14.80;;
75456;SDS011;64036;48.266;14.192;2023-02-21T17:11:21;21.90;;;11.70;;
75456;SDS011;64036;48.266;14.192;2023-02-21T17:13:47;10.20;;;6.10;;
75456;SDS011;64036;48.266;14.192;2023-02-21T17:16:13;6.50;;;3.00;;
75456;SDS011;64036;48.266;14.192;2023-02-21T17:18:45;4.80;;;2.50;;
75456;SDS011;64036;48.266;14.192;2023-02-21T17:21:11;5.00;;;2.20;;
75456;SDS011;64036;48.266;14.192;2023-02-21T17:23:37;3.70;;;1.80;;
75456;SDS011;64036;48.266;14.192;2023-02-21T17:26:06;3.20;;;1.90;;
75456;SDS011;64036;48.266;14.192;2023-02-21T17:28:32;2.50;;;1.50;;
75456;SDS011;64036;48.266;14.192;2023-02-21T17:31:01;6.50;;;1.80;;
75456;SDS011;64036;48.266;14.192;2023-02-21T17:33:27;3.20;;;1.80;;
75456;SDS011;64036;48.266;14.192;2023-02-21T17:35:53;3.60;;;1.70;;
75456;SDS011;64036;48.266;14.192;2023-02-21T17:38:24;4.00;;;1.70;;
75456;SDS011;64036;48.266;14.192;2023-02-21T17:40:50;2.60;;;1.60;;
75456;SDS011;64036;48.266;14.192;2023-02-21T17:43:21;3.40;;;1.70;;
75456;SDS011;64036;48.266;14.192;2023-02-21T17:45:47;3.50;;;1.70;;
75456;SDS011;64036;48.266;14.192;2023-02-21T17:48:16;2.90;;;1.70;;
75456;SDS011;64036;48.266;14.192;2023-02-21T17:50:45;5.40;;;1.60;;
75456;SDS011;64036;48.266;14.192;2023-02-21T17:53:11;3.00;;;1.70;;
75456;SDS011;64036;48.266;14.192;2023-02-21T17:55:37;2.80;;;1.50;;
75456;SDS011;64036;48.266;14.192;2023-02-21T17:58:03;2.20;;;1.50;;
75456;SDS011;64036;48.266;14.192;2023-02-21T18:00:28;2.70;;;1.60;;
75456;SDS011;64036;48.266;14.192;2023-02-21T18:02:58;3.90;;;1.90;;
75456;SDS011;64036;48.266;14.192;2023-02-21T18:05:26;3.20;;;1.70;;
75456;SDS011;64036;48.266;14.192;2023-02-21T18:07:54;3.60;;;1.80;;
75456;SDS011;64036;48.266;14.192;2023-02-21T18:10:23;2.40;;;1.40;;
75456;SDS011;64036;48.266;14.192;2023-02-21T18:12:51;4.60;;;2.10;;
75456;SDS011;64036;48.266;14.192;2023-02-21T18:15:23;2.50;;;1.60;;
75456;SDS011;64036;48.266;14.192;2023-02-21T18:17:52;4.30;;;2.00;;
75456;SDS011;64036;48.266;14.192;2023-02-21T18:20:27;2.90;;;1.70;;
75456;SDS011;64036;48.266;14.192;2023-02-21T18:23:00;3.80;;;1.80;;
75456;SDS011;64036;48.266;14.192;2023-02-21T18:25:33;3.30;;;1.80;;
75456;SDS011;64036;48.266;14.192;2023-02-21T18:28:00;3.40;;;1.80;;
75456;SDS011;64036;48.266;14.192;2023-02-21T18:30:27;3.70;;;1.90;;
75456;SDS011;64036;48.266;14.192;2023-02-21T18:32:53;2.90;;;1.80;;
75456;SDS011;64036;48.266;14.192;2023-02-21T18:35:20;3.80;;;1.90;;
75456;SDS011;64036;48.266;14.192;2023-02-21T18:37:48;3.60;;;1.80;;
75456;SDS011;64036;48.266;14.192;2023-02-21T18:40:16;3.60;;;2.00;;